createdAt,value
2023-04-27T00:04:55.339Z,12.60
2023-04-27T00:10:48.983Z,8.60
2023-04-27T00:16:44.152Z,19.20
2023-04-27T00:22:38.018Z,14.70
2023-04-27T00:28:31.433Z,20.00
2023-04-27T00:34:27.143Z,19.20
2023-04-27T00:40:22.098Z,18.10
2023-04-27T00:46:16.326Z,20.80
2023-04-27T00:52:11.638Z,22.40
2023-04-27T00:58:05.179Z,23.30
2023-04-27T01:03:58.836Z,33.90
2023-04-27T01:09:54.043Z,51.30
2023-04-27T01:15:47.467Z,47.60
2023-04-27T01:21:41.216Z,45.80
2023-04-27T01:27:35.943Z,56.20
2023-04-27T01:33:30.319Z,56.40
2023-04-27T01:39:23.726Z,56.20
2023-04-27T01:45:18.518Z,58.80
2023-04-27T01:51:12.075Z,56.60
2023-04-27T01:57:05.493Z,56.40
2023-04-27T02:03:01.688Z,59.60
2023-04-27T02:08:55.267Z,64.10
2023-04-27T02:14:48.728Z,67.10
2023-04-27T02:20:43.786Z,69.60
2023-04-27T02:26:37.379Z,67.40
2023-04-27T02:32:31.274Z,88.90
2023-04-27T02:38:26.307Z,98.00
2023-04-27T02:44:19.686Z,97.70
2023-04-27T02:50:14.128Z,99.90
2023-04-27T02:56:09.301Z,99.90
2023-04-27T03:02:02.686Z,99.90
2023-04-27T03:07:56.496Z,99.90
2023-04-27T03:13:51.247Z,99.90
2023-04-27T03:19:44.690Z,99.90
2023-04-27T03:25:38.284Z,99.90
2023-04-27T03:31:36.155Z,99.90
2023-04-27T03:37:29.456Z,99.90
2023-04-27T03:43:25.305Z,99.90
2023-04-27T03:49:19.666Z,99.90
2023-04-27T03:55:12.855Z,99.90
2023-04-27T04:01:10.478Z,99.90
2023-04-27T04:07:05.482Z,99.90
2023-04-27T04:12:59.055Z,99.90
2023-04-27T04:18:53.234Z,99.90
2023-04-27T04:24:49.004Z,99.90
2023-04-27T04:30:43.140Z,99.90
2023-04-27T04:36:36.606Z,99.90
2023-04-27T04:42:31.608Z,99.90
2023-04-27T04:53:47.266Z,99.90
2023-04-27T04:59:43.073Z,99.90
2023-04-27T05:05:38.418Z,99.90
2023-04-27T05:11:32.772Z,99.90
2023-04-27T05:17:26.315Z,99.90
2023-04-27T05:23:19.751Z,99.90
2023-04-27T05:29:14.532Z,99.90
2023-04-27T05:35:08.413Z,99.90
2023-04-27T05:41:01.871Z,99.90
2023-04-27T05:46:57.484Z,99.90
2023-04-27T05:52:50.456Z,99.90
2023-04-27T05:58:43.537Z,99.90
2023-04-27T06:04:39.065Z,99.90
2023-04-27T06:10:32.254Z,99.90
2023-04-27T06:16:25.923Z,99.90
2023-04-27T06:22:20.945Z,99.90
2023-04-27T06:28:13.951Z,99.90
2023-04-27T06:34:07.664Z,99.90
2023-04-27T06:40:02.075Z,99.90
2023-04-27T06:45:55.539Z,99.90
2023-04-27T06:51:49.726Z,99.90
2023-04-27T06:57:44.781Z,99.90
2023-04-27T07:03:38.010Z,99.90
2023-04-27T07:09:31.556Z,99.90
2023-04-27T07:15:27.470Z,99.90
2023-04-27T07:21:20.580Z,99.90
2023-04-27T07:27:15.451Z,99.90
2023-04-27T07:33:10.525Z,99.90
2023-04-27T07:39:04.792Z,99.90
2023-04-27T07:44:58.625Z,99.90
2023-04-27T07:50:54.165Z,93.10
2023-04-27T07:56:47.181Z,81.60
2023-04-27T08:02:40.814Z,63.90
2023-04-27T08:08:35.748Z,22.40
2023-04-27T08:14:28.844Z,28.50
2023-04-27T08:20:22.399Z,29.60
2023-04-27T08:26:17.163Z,25.90
2023-04-27T08:32:11.391Z,32.10
2023-04-27T08:38:04.506Z,22.00
2023-04-27T08:44:00.032Z,24.60
2023-04-27T08:49:53.571Z,11.90
2023-04-27T08:55:46.582Z,21.30
2023-04-27T09:01:46.452Z,1.00
2023-04-27T09:07:40.057Z,1.00
2023-04-27T09:13:37.131Z,1.00
2023-04-27T09:19:31.846Z,1.00
2023-04-27T09:25:29.553Z,1.00
2023-04-27T09:31:24.492Z,1.00
2023-04-27T09:37:20.519Z,1.00
2023-04-27T09:43:14.430Z,1.00
2023-04-27T09:49:07.603Z,1.00
2023-04-27T09:55:05.094Z,1.00
2023-04-27T10:01:05.927Z,1.00
2023-04-27T10:07:01.792Z,1.00
2023-04-27T10:13:02.188Z,1.00
2023-04-27T10:18:56.600Z,1.00
2023-04-27T10:24:51.287Z,1.00
2023-04-27T10:30:48.839Z,1.00
2023-04-27T10:36:42.184Z,1.00
2023-04-27T10:42:35.359Z,1.00
2023-04-27T10:48:31.960Z,1.00
2023-04-27T10:54:28.224Z,1.00
2023-04-27T11:00:25.858Z,1.00
2023-04-27T11:06:20.765Z,1.00
2023-04-27T11:12:15.260Z,1.00
2023-04-27T11:18:08.703Z,1.00
2023-04-27T11:24:07.641Z,1.00
2023-04-27T11:30:00.681Z,1.00
2023-04-27T11:35:54.141Z,1.00
2023-04-27T11:41:48.554Z,1.00
2023-04-27T11:47:48.406Z,1.00
2023-04-27T11:53:42.880Z,1.00
2023-04-27T11:59:37.705Z,1.00
2023-04-27T12:05:31.092Z,1.00
2023-04-27T12:11:24.894Z,1.00
2023-04-27T12:17:19.529Z,1.00
2023-04-27T12:23:12.541Z,1.00
2023-04-27T12:29:06.001Z,1.00
2023-04-27T12:35:00.779Z,1.00
2023-04-27T12:40:54.208Z,1.00
2023-04-27T12:46:48.669Z,1.00
2023-04-27T12:52:43.153Z,1.00
2023-04-27T12:58:36.776Z,1.00
2023-04-27T13:04:31.670Z,1.00
2023-04-27T13:10:26.668Z,1.00
2023-04-27T13:16:21.787Z,1.00
2023-04-27T13:22:14.866Z,1.00
2023-04-27T13:28:09.772Z,1.00
2023-04-27T13:34:05.074Z,1.00
2023-04-27T13:39:58.517Z,1.00
2023-04-27T13:45:55.062Z,1.00
2023-04-27T13:51:48.528Z,1.00
2023-04-27T13:57:41.577Z,1.00
2023-04-27T14:03:36.620Z,1.00
2023-04-27T14:09:30.225Z,1.00
2023-04-27T14:15:23.879Z,1.00
2023-04-27T14:21:18.273Z,1.00
2023-04-27T14:27:11.734Z,1.00
2023-04-27T14:33:04.935Z,1.00
2023-04-27T14:38:59.836Z,1.00
2023-04-27T14:44:53.406Z,1.00
2023-04-27T14:50:46.871Z,1.00
2023-04-27T14:56:41.722Z,1.00
2023-04-27T15:02:35.207Z,1.00
2023-04-27T15:08:31.241Z,1.00
2023-04-27T15:14:27.182Z,1.00
2023-04-27T15:20:20.965Z,1.00
2023-04-27T15:26:14.683Z,1.00
2023-04-27T15:32:09.589Z,1.00
2023-04-27T15:38:04.141Z,1.00
2023-04-27T15:43:57.148Z,1.00
2023-04-27T15:49:57.471Z,1.00
2023-04-27T15:55:51.794Z,1.00
2023-04-27T16:01:45.515Z,1.00
2023-04-27T16:07:41.601Z,1.00
2023-04-27T16:13:35.196Z,1.00
2023-04-27T16:19:28.808Z,1.00
2023-04-27T16:25:23.645Z,1.00
2023-04-27T16:31:16.961Z,1.00
2023-04-27T16:37:11.271Z,1.00
2023-04-27T16:43:05.673Z,1.00
2023-04-27T16:48:58.676Z,1.00
2023-04-27T16:54:52.151Z,1.00
2023-04-27T17:00:47.525Z,1.00
2023-04-27T17:06:41.471Z,1.00
2023-04-27T17:12:34.955Z,1.00
2023-04-27T17:18:29.768Z,1.00
2023-04-27T17:24:25.019Z,1.00
2023-04-27T17:30:18.548Z,1.00
2023-04-27T17:36:13.424Z,1.00
2023-04-27T17:42:07.307Z,1.00
2023-04-27T17:48:00.800Z,1.00
2023-04-27T17:53:55.208Z,1.00
2023-04-27T17:59:48.645Z,1.00
2023-04-27T18:05:41.782Z,1.00
2023-04-27T18:11:36.822Z,1.00
2023-04-27T18:17:30.279Z,1.00
2023-04-27T18:23:23.708Z,1.00
2023-04-27T18:29:18.536Z,1.00
2023-04-27T18:35:12.051Z,1.00
2023-04-27T18:41:05.554Z,1.00
2023-04-27T18:47:01.266Z,1.00
2023-04-27T18:52:54.306Z,1.00
2023-04-27T18:58:48.975Z,1.00
2023-04-27T19:04:49.081Z,1.00
2023-04-27T19:10:52.176Z,1.00
2023-04-27T19:16:45.821Z,1.00
2023-04-27T19:22:40.833Z,1.00
2023-04-27T19:28:34.358Z,1.00
2023-04-27T19:34:27.498Z,1.70
2023-04-27T19:40:21.809Z,3.70
2023-04-27T19:46:15.281Z,10.60
2023-04-27T19:52:08.782Z,14.30
2023-04-27T19:58:03.601Z,20.90
2023-04-27T20:07:32.654Z,12.60
2023-04-27T20:13:26.383Z,11.60
2023-04-27T20:19:21.156Z,7.00
2023-04-27T20:25:16.083Z,13.00
2023-04-27T20:31:09.565Z,23.70
2023-04-27T20:37:03.543Z,19.30
2023-04-27T20:42:58.340Z,14.10
2023-04-27T20:48:51.753Z,21.70
2023-04-27T20:54:45.597Z,22.80
2023-04-27T21:00:40.385Z,17.90
2023-04-27T21:06:33.846Z,18.00
2023-04-27T21:12:27.318Z,17.50
2023-04-27T21:18:29.875Z,22.00
2023-04-27T21:24:25.118Z,27.10
2023-04-27T21:30:18.843Z,36.30
2023-04-27T21:36:14.320Z,48.50
2023-04-27T21:42:08.075Z,41.70
2023-04-27T21:48:01.520Z,48.20
2023-04-27T21:53:56.496Z,43.60
2023-04-27T21:59:50.020Z,52.90
2023-04-27T22:05:43.700Z,51.60
2023-04-27T22:11:38.513Z,57.90
2023-04-27T22:17:32.021Z,57.80
2023-04-27T22:23:56.164Z,73.10
2023-04-27T22:29:49.587Z,68.30
2023-04-27T22:35:43.012Z,63.60
2023-04-27T22:41:38.268Z,66.20
2023-04-27T22:47:31.759Z,58.00
2023-04-27T22:53:25.492Z,67.90
2023-04-27T22:59:23.111Z,75.80
2023-04-27T23:05:17.022Z,64.80
2023-04-27T23:11:13.979Z,56.40
2023-04-27T23:17:08.798Z,50.50
2023-04-27T23:23:02.252Z,47.50
2023-04-27T23:28:55.782Z,48.30
2023-04-27T23:34:54.083Z,50.00
2023-04-27T23:40:47.554Z,45.80
2023-04-27T23:46:41.182Z,47.20
2023-04-27T23:52:36.030Z,45.30
2023-04-27T23:58:29.472Z,46.90
